createdAt,value
2018-10-18T00:01:59.302Z,45.74
2018-10-18T00:04:27.582Z,45.67
2018-10-18T00:06:56.015Z,45.60
2018-10-18T00:09:24.320Z,45.60
2018-10-18T00:11:52.693Z,46.47
2018-10-18T00:14:21.201Z,46.32
2018-10-18T00:16:49.486Z,45.83
2018-10-18T00:19:17.796Z,45.93
2018-10-18T00:21:46.216Z,46.57
2018-10-18T00:24:14.667Z,46.36
2018-10-18T00:26:42.836Z,46.47
2018-10-18T00:29:11.206Z,46.68
2018-10-18T00:31:39.504Z,46.29
2018-10-18T00:34:07.867Z,47.03
2018-10-18T00:36:36.206Z,47.49
2018-10-18T00:39:06.958Z,47.63
2018-10-18T00:41:36.360Z,47.13
2018-10-18T00:44:05.685Z,47.45
2018-10-18T00:46:34.052Z,47.72
2018-10-18T00:49:02.355Z,47.00
2018-10-18T00:51:30.711Z,46.77
2018-10-18T00:53:59.033Z,47.24
2018-10-18T00:56:27.361Z,47.17
2018-10-18T00:58:55.708Z,46.85
2018-10-18T01:01:24.007Z,46.55
2018-10-18T01:03:52.439Z,46.62
2018-10-18T01:06:20.772Z,47.50
2018-10-18T01:08:49.443Z,46.84
2018-10-18T01:11:17.740Z,47.00
2018-10-18T01:13:46.059Z,47.45
2018-10-18T01:16:14.508Z,46.98
2018-10-18T01:18:48.463Z,46.29
2018-10-18T01:21:16.868Z,45.99
2018-10-18T01:23:45.169Z,46.28
2018-10-18T01:26:13.554Z,46.83
2018-10-18T01:28:41.816Z,46.23
2018-10-18T01:31:10.127Z,46.08
2018-10-18T01:33:38.516Z,46.59
2018-10-18T01:36:06.865Z,46.35
2018-10-18T01:38:35.175Z,45.61
2018-10-18T01:41:03.547Z,46.29
2018-10-18T01:43:31.817Z,46.58
2018-10-18T01:46:04.330Z,47.12
2018-10-18T01:48:32.671Z,47.57
2018-10-18T01:51:01.008Z,47.05
2018-10-18T01:53:29.308Z,47.05
2018-10-18T01:55:57.797Z,46.80
2018-10-18T01:58:26.275Z,46.57
2018-10-18T02:00:54.703Z,46.59
2018-10-18T02:03:23.093Z,46.84
2018-10-18T02:05:51.546Z,46.68
2018-10-18T02:08:19.793Z,46.34
2018-10-18T02:10:48.096Z,47.11
2018-10-18T02:13:16.545Z,46.64
2018-10-18T02:15:44.864Z,46.85
2018-10-18T02:18:13.220Z,47.76
2018-10-18T02:20:41.443Z,48.21
2018-10-18T02:23:09.749Z,48.03
2018-10-18T02:25:38.074Z,47.32
2018-10-18T02:28:06.691Z,47.12
2018-10-18T02:30:35.107Z,47.00
2018-10-18T02:33:03.434Z,46.72
2018-10-18T02:35:31.705Z,47.33
2018-10-18T02:38:00.190Z,47.45
2018-10-18T02:40:28.438Z,47.32
2018-10-18T02:42:56.766Z,47.61
2018-10-18T02:45:25.217Z,46.65
2018-10-18T02:47:53.506Z,46.96
2018-10-18T02:50:21.880Z,47.34
2018-10-18T02:52:50.264Z,47.27
2018-10-18T02:55:18.747Z,47.63
2018-10-18T02:57:47.479Z,48.00
2018-10-18T03:00:15.911Z,47.99
2018-10-18T03:02:44.392Z,48.18
2018-10-18T03:05:12.690Z,47.78
2018-10-18T03:07:41.071Z,48.18
2018-10-18T03:10:09.723Z,48.30
2018-10-18T03:12:38.054Z,49.07
2018-10-18T03:15:07.712Z,49.86
2018-10-18T03:17:36.004Z,48.98
2018-10-18T03:20:04.305Z,48.73
2018-10-18T03:22:32.832Z,48.41
2018-10-18T03:25:01.176Z,47.78
2018-10-18T03:27:29.579Z,47.74
2018-10-18T03:29:57.963Z,47.77
2018-10-18T03:32:26.255Z,48.49
2018-10-18T03:34:54.742Z,47.85
2018-10-18T03:37:23.161Z,47.96
2018-10-18T03:39:51.465Z,48.36
2018-10-18T03:42:19.891Z,48.66
2018-10-18T03:44:48.093Z,48.23
2018-10-18T03:47:16.482Z,47.62
2018-10-18T03:49:45.243Z,47.34
2018-10-18T03:52:13.541Z,47.45
2018-10-18T03:54:41.814Z,47.25
2018-10-18T03:57:10.220Z,47.13
2018-10-18T03:59:38.533Z,47.55
2018-10-18T04:02:06.801Z,47.63
2018-10-18T04:04:35.208Z,48.18
2018-10-18T04:07:03.513Z,47.80
2018-10-18T04:09:31.866Z,48.24
2018-10-18T04:12:00.473Z,48.67
2018-10-18T04:14:28.745Z,48.07
2018-10-18T04:16:57.212Z,47.57
2018-10-18T04:19:25.652Z,47.85
2018-10-18T04:21:54.549Z,47.55
2018-10-18T04:24:22.933Z,47.80
2018-10-18T04:26:51.234Z,47.36
2018-10-18T04:29:19.811Z,48.33
2018-10-18T04:31:48.160Z,47.24
2018-10-18T04:34:16.514Z,47.50
2018-10-18T04:36:44.939Z,47.18
2018-10-18T04:39:13.983Z,47.79
2018-10-18T04:41:42.514Z,48.73
2018-10-18T04:44:10.826Z,48.63
2018-10-18T04:46:39.307Z,49.14
2018-10-18T04:49:07.749Z,49.03
2018-10-18T04:51:36.130Z,49.12
2018-10-18T04:54:04.555Z,48.10
2018-10-18T04:56:32.904Z,47.80
2018-10-18T04:59:01.204Z,48.00
2018-10-18T05:01:29.538Z,48.67
2018-10-18T05:03:57.813Z,48.06
2018-10-18T05:06:26.248Z,48.11
2018-10-18T05:08:54.673Z,48.10
2018-10-18T05:11:23.084Z,47.95
2018-10-18T05:13:51.422Z,48.15
2018-10-18T05:16:19.780Z,47.50
2018-10-18T05:18:48.838Z,48.27
2018-10-18T05:21:17.258Z,48.11
2018-10-18T05:23:45.920Z,48.43
2018-10-18T05:26:14.248Z,48.56
2018-10-18T05:28:42.648Z,49.08
2018-10-18T05:31:11.300Z,48.83
2018-10-18T05:33:39.604Z,50.21
2018-10-18T05:36:08.047Z,51.23
2018-10-18T05:38:36.495Z,50.51
2018-10-18T05:41:04.934Z,49.77
2018-10-18T05:43:33.259Z,49.04
2018-10-18T05:46:01.516Z,48.93
2018-10-18T05:48:29.859Z,48.93
2018-10-18T05:50:58.151Z,48.28
2018-10-18T05:53:26.583Z,48.64
2018-10-18T05:55:54.975Z,47.97
2018-10-18T05:58:23.379Z,49.00
2018-10-18T06:00:51.861Z,48.43
2018-10-18T06:03:20.287Z,49.47
2018-10-18T06:05:48.622Z,49.58
2018-10-18T06:08:16.937Z,48.80
2018-10-18T06:10:56.490Z,48.72
2018-10-18T06:13:24.823Z,48.80
2018-10-18T06:15:53.183Z,49.32
2018-10-18T06:18:21.508Z,48.46
2018-10-18T06:20:49.853Z,49.54
2018-10-18T06:23:18.274Z,48.97
2018-10-18T06:25:46.524Z,48.45
2018-10-18T06:28:14.854Z,48.89
2018-10-18T06:30:43.169Z,48.98
2018-10-18T06:33:11.733Z,49.57
2018-10-18T06:35:40.039Z,49.08
2018-10-18T06:38:08.586Z,48.46
2018-10-18T06:40:37.013Z,48.06
2018-10-18T06:43:05.557Z,47.47
2018-10-18T06:45:34.010Z,48.23
2018-10-18T06:48:02.499Z,47.28
2018-10-18T06:50:30.726Z,47.56
2018-10-18T06:52:59.075Z,47.93
2018-10-18T06:55:27.516Z,47.26
2018-10-18T06:57:55.818Z,47.63
2018-10-18T07:00:25.169Z,47.61
2018-10-18T07:02:53.473Z,47.64
2018-10-18T07:05:21.776Z,47.09
2018-10-18T07:07:50.082Z,47.10
2018-10-18T07:10:18.490Z,46.63
2018-10-18T07:12:47.057Z,45.74
2018-10-18T07:15:15.836Z,45.51
2018-10-18T07:17:44.735Z,45.36
2018-10-18T07:20:13.727Z,44.79
2018-10-18T07:22:42.349Z,44.92
2018-10-18T07:25:12.175Z,44.97
2018-10-18T07:27:41.107Z,44.99
2018-10-18T07:30:11.371Z,44.66
2018-10-18T07:32:39.771Z,44.39
2018-10-18T07:35:09.228Z,44.29
2018-10-18T07:37:37.728Z,44.06
2018-10-18T07:40:07.655Z,43.86
2018-10-18T07:42:35.996Z,43.85
2018-10-18T07:45:04.367Z,43.59
2018-10-18T07:47:32.696Z,42.93
2018-10-18T07:50:01.009Z,42.94
2018-10-18T07:52:29.398Z,42.55
2018-10-18T07:54:57.809Z,42.32
2018-10-18T07:57:26.179Z,42.00
2018-10-18T07:59:54.668Z,42.17
2018-10-18T08:02:22.940Z,41.08
2018-10-18T08:04:51.293Z,41.73
2018-10-18T08:07:19.958Z,41.09
2018-10-18T08:09:48.275Z,40.85
2018-10-18T08:12:16.583Z,41.65
2018-10-18T08:14:44.941Z,40.73
2018-10-18T08:17:13.350Z,40.65
2018-10-18T08:19:41.609Z,41.36
2018-10-18T08:22:09.904Z,41.16
2018-10-18T08:24:38.261Z,40.29
2018-10-18T08:27:06.597Z,41.30
2018-10-18T08:29:34.920Z,40.35
2018-10-18T08:32:03.284Z,40.87
2018-10-18T08:34:31.663Z,40.87
2018-10-18T08:37:00.345Z,40.91
2018-10-18T08:39:28.648Z,41.44
2018-10-18T08:41:57.138Z,41.39
2018-10-18T08:44:25.689Z,41.40
2018-10-18T08:46:53.967Z,41.04
2018-10-18T08:49:22.316Z,39.94
2018-10-18T08:51:51.104Z,41.12
2018-10-18T08:54:19.408Z,40.29
2018-10-18T08:56:47.791Z,39.80
2018-10-18T08:59:16.177Z,39.30
2018-10-18T09:01:44.480Z,39.51
2018-10-18T09:04:12.793Z,40.21
2018-10-18T09:06:41.100Z,40.32
2018-10-18T09:09:10.010Z,38.63
2018-10-18T09:11:38.289Z,38.00
2018-10-18T09:14:07.143Z,39.59
2018-10-18T09:16:35.537Z,39.24
2018-10-18T09:19:04.138Z,38.91
2018-10-18T09:21:32.384Z,37.96
2018-10-18T09:24:00.778Z,37.24
2018-10-18T09:26:29.106Z,36.46
2018-10-18T09:28:57.460Z,36.21
2018-10-18T09:31:25.789Z,35.71
2018-10-18T09:33:54.094Z,35.98
2018-10-18T09:36:22.444Z,35.28
2018-10-18T09:38:50.731Z,34.63
2018-10-18T09:41:19.019Z,35.66
2018-10-18T09:43:47.543Z,34.98
2018-10-18T09:46:15.743Z,35.58
2018-10-18T09:48:44.042Z,34.95
2018-10-18T09:51:12.355Z,34.67
2018-10-18T09:53:40.669Z,34.74
2018-10-18T09:56:09.062Z,34.20
2018-10-18T09:58:37.310Z,34.51
2018-10-18T10:01:11.221Z,34.19
2018-10-18T10:03:39.464Z,33.70
2018-10-18T10:06:07.724Z,33.67
2018-10-18T10:08:36.099Z,32.75
2018-10-18T10:11:04.455Z,33.01
2018-10-18T10:13:32.855Z,33.48
2018-10-18T10:16:01.165Z,32.25
2018-10-18T10:18:29.487Z,32.17
2018-10-18T10:20:57.819Z,32.35
2018-10-18T10:23:26.281Z,32.51
2018-10-18T10:25:54.750Z,32.22
2018-10-18T10:28:23.210Z,32.57
2018-10-18T10:30:51.582Z,31.96
2018-10-18T10:33:20.056Z,32.14
2018-10-18T10:35:48.413Z,32.90
2018-10-18T10:38:16.808Z,32.51
2018-10-18T10:40:45.114Z,31.65
2018-10-18T10:43:13.405Z,32.39
2018-10-18T10:45:48.247Z,32.65
2018-10-18T10:48:16.689Z,32.31
2018-10-18T10:50:44.972Z,31.67
2018-10-18T10:53:13.385Z,32.09
2018-10-18T10:55:41.700Z,32.85
2018-10-18T10:58:10.157Z,34.36
2018-10-18T11:01:13.892Z,32.47
2018-10-18T11:03:42.905Z,32.51
2018-10-18T11:06:11.590Z,32.06
2018-10-18T11:08:39.853Z,33.70
2018-10-18T11:11:08.664Z,33.02
2018-10-18T11:13:37.045Z,33.11
2018-10-18T11:16:06.691Z,33.51
2018-10-18T11:18:35.991Z,33.53
2018-10-18T11:21:05.316Z,31.57
2018-10-18T11:23:34.226Z,31.38
2018-10-18T11:26:02.764Z,30.82
2018-10-18T11:28:31.031Z,33.88
2018-10-18T11:30:59.424Z,33.68
2018-10-18T11:33:27.746Z,31.89
2018-10-18T11:35:56.210Z,31.22
2018-10-18T11:38:24.502Z,32.28
2018-10-18T11:40:53.379Z,30.33
2018-10-18T11:43:22.049Z,31.97
2018-10-18T11:45:50.374Z,29.04
2018-10-18T11:48:18.844Z,28.52
2018-10-18T11:50:47.234Z,29.07
2018-10-18T11:53:15.595Z,30.18
2018-10-18T11:55:43.969Z,31.88
2018-10-18T11:58:12.950Z,30.94
2018-10-18T12:00:41.528Z,29.45
2018-10-18T12:03:09.957Z,27.39
2018-10-18T12:05:39.247Z,27.33
2018-10-18T12:08:08.313Z,24.41
2018-10-18T12:10:36.561Z,22.99
2018-10-18T12:13:04.902Z,24.87
2018-10-18T12:15:33.827Z,24.17
2018-10-18T12:18:02.117Z,24.38
2018-10-18T12:20:31.231Z,22.57
2018-10-18T12:23:00.049Z,20.53
2018-10-18T12:25:28.432Z,17.85
2018-10-18T12:27:56.888Z,18.04
2018-10-18T12:30:25.228Z,18.50
2018-10-18T12:32:53.493Z,17.11
2018-10-18T12:35:21.832Z,18.04
2018-10-18T12:37:50.117Z,19.57
2018-10-18T12:40:18.588Z,19.26
2018-10-18T12:42:48.084Z,17.05
2018-10-18T12:45:16.543Z,17.81
2018-10-18T12:47:44.986Z,17.49
2018-10-18T12:50:13.346Z,17.39
2018-10-18T12:52:41.664Z,18.61
2018-10-18T12:55:10.095Z,17.55
2018-10-18T12:57:38.383Z,16.53
2018-10-18T13:00:08.339Z,15.60
2018-10-18T13:02:36.820Z,18.76
2018-10-18T13:05:06.440Z,17.37
2018-10-18T13:07:34.958Z,18.33
2018-10-18T13:10:03.712Z,18.02
2018-10-18T13:12:32.227Z,18.58
2018-10-18T13:15:00.517Z,18.29
2018-10-18T13:17:28.866Z,18.71
2018-10-18T13:19:57.267Z,19.34
2018-10-18T13:22:25.564Z,20.03
2018-10-18T13:24:54.036Z,18.00
2018-10-18T13:27:22.342Z,19.78
2018-10-18T13:29:50.633Z,18.27
2018-10-18T13:32:19.567Z,19.23
2018-10-18T13:34:47.878Z,20.16
2018-10-18T13:37:16.365Z,19.23
2018-10-18T13:39:44.720Z,20.43
2018-10-18T13:42:13.118Z,19.07
2018-10-18T13:44:41.327Z,19.19
2018-10-18T13:47:09.731Z,20.32
2018-10-18T13:49:38.381Z,19.97
2018-10-18T13:52:06.701Z,18.99
2018-10-18T13:54:35.096Z,19.55
2018-10-18T13:57:03.440Z,22.18
2018-10-18T13:59:43.262Z,20.97
2018-10-18T14:02:11.622Z,19.17
2018-10-18T14:04:39.881Z,20.21
2018-10-18T14:07:08.294Z,19.78
2018-10-18T14:09:36.672Z,19.95
2018-10-18T14:12:05.372Z,20.16
2018-10-18T14:14:33.770Z,19.80
2018-10-18T14:17:02.296Z,19.64
2018-10-18T14:19:30.533Z,20.14
2018-10-18T14:21:58.850Z,19.04
2018-10-18T14:24:27.185Z,18.95
2018-10-18T14:26:56.087Z,18.62
2018-10-18T14:29:24.377Z,19.27
2018-10-18T14:31:52.785Z,19.86
2018-10-18T14:34:21.267Z,21.63
2018-10-18T14:36:49.622Z,20.50
2018-10-18T14:39:18.010Z,21.73
2018-10-18T14:41:46.817Z,19.71
2018-10-18T14:44:15.143Z,20.23
2018-10-18T14:46:43.384Z,19.91
2018-10-18T14:49:11.719Z,20.61
2018-10-18T14:51:40.113Z,24.43
2018-10-18T14:54:08.470Z,23.14
2018-10-18T14:56:37.245Z,24.64
2018-10-18T14:59:05.763Z,24.52
2018-10-18T15:01:34.066Z,23.86
2018-10-18T15:04:02.549Z,23.58
2018-10-18T15:06:30.915Z,22.89
2018-10-18T15:08:59.241Z,22.33
2018-10-18T15:11:27.602Z,21.54
2018-10-18T15:13:56.081Z,22.06
2018-10-18T15:16:24.411Z,21.42
2018-10-18T15:18:52.761Z,22.37
2018-10-18T15:21:21.060Z,21.57
2018-10-18T15:23:49.386Z,22.69
2018-10-18T15:26:17.894Z,22.73
2018-10-18T15:28:46.148Z,23.82
2018-10-18T15:31:14.535Z,24.18
2018-10-18T15:33:42.823Z,26.59
2018-10-18T15:36:11.171Z,27.27
2018-10-18T15:38:39.601Z,28.55
2018-10-18T15:41:07.881Z,28.76
2018-10-18T15:43:36.226Z,28.99
2018-10-18T15:46:05.377Z,28.98
2018-10-18T15:48:33.933Z,29.20
2018-10-18T15:51:02.578Z,30.00
2018-10-18T15:53:30.906Z,30.44
2018-10-18T15:55:59.195Z,30.15
2018-10-18T15:58:27.558Z,30.51
2018-10-18T16:00:55.805Z,30.85
2018-10-18T16:03:24.224Z,31.23
2018-10-18T16:05:52.552Z,31.13
2018-10-18T16:08:20.974Z,31.89
2018-10-18T16:10:49.349Z,32.07
2018-10-18T16:13:17.680Z,32.32
2018-10-18T16:15:46.175Z,33.13
2018-10-18T16:18:14.578Z,32.56
2018-10-18T16:20:42.974Z,34.05
2018-10-18T16:23:11.464Z,32.90
2018-10-18T16:25:39.744Z,33.40
2018-10-18T16:28:08.314Z,33.69
2018-10-18T16:30:36.650Z,34.22
2018-10-18T16:33:05.428Z,34.29
2018-10-18T16:35:33.826Z,35.09
2018-10-18T16:38:02.346Z,35.45
2018-10-18T16:40:30.665Z,35.22
2018-10-18T16:42:58.922Z,34.95
2018-10-18T16:45:27.474Z,35.24
2018-10-18T16:47:55.927Z,35.39
2018-10-18T16:50:24.339Z,36.04
2018-10-18T16:52:52.647Z,36.05
2018-10-18T16:55:20.986Z,36.30
2018-10-18T16:57:49.340Z,36.24
2018-10-18T17:00:18.535Z,36.28
2018-10-18T17:02:46.708Z,36.40
2018-10-18T17:05:15.081Z,36.55
2018-10-18T17:07:43.680Z,36.65
2018-10-18T17:10:12.181Z,36.30
2018-10-18T17:12:40.448Z,36.52
2018-10-18T17:15:08.909Z,37.49
2018-10-18T17:17:37.588Z,37.54
2018-10-18T17:20:07.042Z,37.12
2018-10-18T17:22:35.355Z,37.30
2018-10-18T17:25:03.678Z,38.18
2018-10-18T17:27:32.212Z,38.44
2018-10-18T17:30:00.604Z,37.93
2018-10-18T17:32:28.827Z,37.94
2018-10-18T17:34:57.267Z,38.58
2018-10-18T17:37:25.544Z,38.68
2018-10-18T17:39:57.307Z,38.12
2018-10-18T17:42:25.812Z,37.97
2018-10-18T17:44:54.247Z,38.38
2018-10-18T17:47:22.601Z,38.62
2018-10-18T17:49:50.966Z,38.39
2018-10-18T17:52:19.291Z,39.03
2018-10-18T17:54:47.707Z,39.09
2018-10-18T17:57:15.986Z,38.61
2018-10-18T17:59:47.107Z,38.96
2018-10-18T18:02:15.546Z,39.63
2018-10-18T18:04:43.914Z,39.64
2018-10-18T18:07:12.256Z,39.49
2018-10-18T18:09:40.597Z,40.02
2018-10-18T18:12:09.151Z,39.76
2018-10-18T18:14:37.564Z,40.03
2018-10-18T18:17:06.088Z,40.70
2018-10-18T18:22:06.848Z,40.64
2018-10-18T18:24:37.245Z,41.11
2018-10-18T18:27:05.694Z,41.25
2018-10-18T18:29:34.011Z,41.67
2018-10-18T18:32:02.328Z,41.65
2018-10-18T18:34:30.604Z,41.30
2018-10-18T18:36:58.976Z,41.43
2018-10-18T18:39:27.542Z,41.84
2018-10-18T18:41:55.900Z,41.88
2018-10-18T18:44:24.599Z,42.15
2018-10-18T18:46:52.977Z,41.98
2018-10-18T18:49:21.451Z,42.40
2018-10-18T18:51:49.804Z,42.57
2018-10-18T18:54:18.485Z,42.47
2018-10-18T18:56:46.886Z,42.31
2018-10-18T18:59:15.402Z,42.70
2018-10-18T19:01:43.846Z,43.00
2018-10-18T19:04:12.661Z,43.88
2018-10-18T19:06:41.020Z,43.90
2018-10-18T19:09:09.969Z,44.00
2018-10-18T19:11:38.745Z,43.41
2018-10-18T19:14:07.649Z,43.86
2018-10-18T19:16:36.033Z,43.80
2018-10-18T19:19:05.021Z,44.36
2018-10-18T19:23:43.459Z,44.75
2018-10-18T19:26:11.912Z,43.84
2018-10-18T19:28:40.370Z,44.73
2018-10-18T19:31:08.849Z,44.83
2018-10-18T19:33:37.240Z,45.07
2018-10-18T19:36:05.881Z,45.09
2018-10-18T19:38:34.249Z,45.15
2018-10-18T19:41:02.590Z,44.19
2018-10-18T19:43:30.992Z,44.85
2018-10-18T19:45:59.381Z,44.82
2018-10-18T19:48:27.922Z,44.27
2018-10-18T19:50:56.222Z,44.52
2018-10-18T19:53:24.596Z,44.55
2018-10-18T19:55:52.977Z,44.67
2018-10-18T19:58:21.387Z,45.41
2018-10-18T20:00:49.669Z,45.01
2018-10-18T20:03:18.086Z,45.15
2018-10-18T20:05:46.994Z,45.86
2018-10-18T20:08:15.370Z,45.58
2018-10-18T20:10:43.548Z,45.12
2018-10-18T20:13:11.895Z,45.63
2018-10-18T20:15:40.216Z,45.66
2018-10-18T20:18:08.546Z,45.88
2018-10-18T20:20:36.946Z,46.21
2018-10-18T20:23:05.409Z,46.32
2018-10-18T20:25:33.856Z,45.77
2018-10-18T20:28:02.015Z,45.90
2018-10-18T20:30:30.240Z,46.56
2018-10-18T20:32:58.879Z,45.85
2018-10-18T20:35:27.414Z,46.22
2018-10-18T20:37:55.903Z,46.22
2018-10-18T20:40:24.200Z,46.28
2018-10-18T20:42:52.475Z,47.39
2018-10-18T20:45:24.892Z,46.77
2018-10-18T20:47:53.311Z,47.50
2018-10-18T20:50:21.457Z,46.31
2018-10-18T20:52:49.736Z,46.93
2018-10-18T20:55:18.901Z,46.79
2018-10-18T20:57:47.926Z,47.18
2018-10-18T21:00:16.329Z,47.52
2018-10-18T21:02:44.633Z,47.76
2018-10-18T21:05:13.075Z,47.74
2018-10-18T21:07:41.301Z,47.40
2018-10-18T21:10:09.808Z,48.04
2018-10-18T21:12:38.108Z,47.33
2018-10-18T21:15:06.512Z,48.15
2018-10-18T21:17:34.846Z,48.05
2018-10-18T21:20:03.178Z,48.40
2018-10-18T21:22:31.586Z,49.56
2018-10-18T21:24:59.900Z,48.27
2018-10-18T21:27:28.492Z,48.81
2018-10-18T21:29:56.778Z,49.04
2018-10-18T21:32:25.139Z,48.54
2018-10-18T21:34:53.429Z,48.39
2018-10-18T21:37:21.680Z,48.79
2018-10-18T21:39:49.984Z,48.40
2018-10-18T21:42:18.273Z,48.45
2018-10-18T21:44:47.092Z,49.00
2018-10-18T21:47:16.830Z,49.52
2018-10-18T21:49:45.256Z,49.74
2018-10-18T21:52:13.634Z,49.68
2018-10-18T21:54:42.016Z,49.60
2018-10-18T21:57:10.436Z,49.30
2018-10-18T21:59:38.987Z,49.21
2018-10-18T22:04:39.753Z,49.64
2018-10-18T22:07:08.048Z,49.61
2018-10-18T22:09:36.392Z,50.20
2018-10-18T22:12:05.017Z,50.03
2018-10-18T22:14:33.339Z,50.18
2018-10-18T22:17:01.805Z,49.73
2018-10-18T22:19:30.261Z,49.89
2018-10-18T22:21:58.535Z,50.30
2018-10-18T22:24:26.924Z,49.70
2018-10-18T22:26:55.316Z,49.73
2018-10-18T22:29:24.020Z,50.22
2018-10-18T22:31:52.361Z,50.33
2018-10-18T22:34:20.636Z,49.96
2018-10-18T22:36:48.966Z,50.81
2018-10-18T22:39:17.212Z,50.23
2018-10-18T22:41:45.710Z,50.41
2018-10-18T22:44:14.077Z,51.10
2018-10-18T22:46:42.363Z,50.88
2018-10-18T22:49:10.814Z,50.49
2018-10-18T22:51:39.226Z,50.97
2018-10-18T22:54:07.565Z,51.18
2018-10-18T22:56:36.158Z,50.98
2018-10-18T22:59:04.565Z,50.59
2018-10-18T23:01:32.900Z,50.74
2018-10-18T23:04:01.189Z,50.01
2018-10-18T23:06:29.692Z,50.80
2018-10-18T23:08:58.336Z,51.49
2018-10-18T23:11:26.672Z,52.40
2018-10-18T23:13:55.080Z,50.49
2018-10-18T23:16:23.376Z,49.53
2018-10-18T23:18:51.643Z,49.71
2018-10-18T23:21:20.056Z,49.98
2018-10-18T23:23:48.400Z,50.38
2018-10-18T23:26:16.862Z,50.80
2018-10-18T23:28:45.179Z,51.02
2018-10-18T23:31:13.496Z,50.71
2018-10-18T23:33:41.828Z,51.75
2018-10-18T23:36:10.185Z,52.10
2018-10-18T23:38:38.630Z,52.76
2018-10-18T23:41:07.169Z,52.94
2018-10-18T23:43:35.460Z,53.28
2018-10-18T23:46:03.863Z,52.63
2018-10-18T23:48:32.176Z,51.85
2018-10-18T23:51:00.493Z,51.74
2018-10-18T23:53:28.906Z,51.92
2018-10-18T23:55:57.246Z,50.93
2018-10-18T23:58:25.715Z,52.74
